Time;durP1;ratioP1;P1;durP2;ratioP2;P2;SDS_P1;SDS_P2;PMS_P1;PMS_P2;Temp;Humidity;BMP_temperature;BMP_pressure;BME280_temperature;BME280_humidity;BME280_pressure;Samples;Min_cycle;Max_cycle;Signal;HPM_P1;HPM_P2
2024/04/02 00:04:11;;;;;;;2.22;0.55;;;;;;;9.67;96.13;99036.59;10399555;28;20052;-64
2024/04/02 00:09:11;;;;;;;0.95;0.20;;;;;;;9.42;96.14;98999.09;10400933;28;20143;-63
2024/04/02 00:14:11;;;;;;;0.95;0.20;;;;;;;9.57;95.80;99030.50;10390588;28;20053;-63
2024/04/02 00:19:14;;;;;;;1.00;0.30;;;;;;;9.61;95.58;99022.09;10365156;28;20065;-63
2024/04/02 00:24:14;;;;;;;2.47;0.55;;;;;;;9.49;95.24;99021.44;10366798;28;20136;-64
2024/04/02 00:29:15;;;;;;;0.88;0.32;;;;;;;9.42;96.16;99035.44;10397056;28;20033;-63
2024/04/02 00:34:15;;;;;;;0.60;0.20;;;;;;;9.37;96.52;99035.88;10418714;28;20041;-64
2024/04/02 00:39:16;;;;;;;0.63;0.20;;;;;;;9.28;97.41;99048.22;10397135;28;20047;-63
2024/04/02 00:44:16;;;;;;;0.93;0.28;;;;;;;9.22;98.00;99051.44;10403928;28;20072;-63
2024/04/02 00:49:17;;;;;;;1.20;0.25;;;;;;;9.13;98.38;99055.81;10402824;28;20049;-63
2024/04/02 00:54:18;;;;;;;1.92;0.20;;;;;;;9.10;98.68;99069.38;10401990;28;20055;-65
2024/04/02 00:59:18;;;;;;;1.65;0.30;;;;;;;9.10;98.90;99072.00;10401654;28;20131;-66
2024/04/02 01:04:19;;;;;;;1.35;0.30;;;;;;;9.08;99.43;99079.25;10391249;28;20059;-62
2024/04/02 01:09:20;;;;;;;1.17;0.43;;;;;;;9.05;99.54;99084.88;10393145;28;20052;-63
2024/04/02 01:14:20;;;;;;;2.05;0.40;;;;;;;9.03;99.59;99086.84;10398419;28;20060;-63
2024/04/02 01:19:21;;;;;;;1.88;0.50;;;;;;;8.95;100.00;99092.03;10402111;28;20041;-63
2024/04/02 01:24:21;;;;;;;1.00;0.45;;;;;;;8.98;100.00;99105.00;10391367;28;20048;-61
2024/04/02 01:29:22;;;;;;;1.95;0.45;;;;;;;8.97;99.71;99105.97;10392316;28;20065;-63
2024/04/02 01:34:22;;;;;;;2.78;0.52;;;;;;;8.91;99.56;99109.22;10384271;28;20056;-64
2024/04/02 01:39:23;;;;;;;3.03;0.40;;;;;;;8.87;98.76;99107.81;10401692;28;20131;-62
2024/04/02 01:44:23;;;;;;;1.52;0.45;;;;;;;8.92;98.01;99114.38;10383648;28;20057;-63
2024/04/02 01:49:24;;;;;;;1.13;0.17;;;;;;;8.90;97.30;99120.78;10385085;28;20045;-64
2024/04/02 01:54:25;;;;;;;2.13;0.60;;;;;;;8.90;97.10;99118.97;10394012;28;20705;-64
2024/04/02 01:59:26;;;;;;;1.20;0.30;;;;;;;8.90;96.97;99134.06;10420116;28;20543;-64
2024/04/02 02:04:27;;;;;;;0.90;0.60;;;;;;;8.91;97.16;99136.56;10389053;28;20120;-64
2024/04/02 02:09:27;;;;;;;0.95;0.80;;;;;;;8.93;96.58;99133.78;10394069;28;20056;-63
2024/04/02 02:14:27;;;;;;;1.33;0.20;;;;;;;8.82;96.52;99146.22;10383422;28;20067;-62
2024/04/02 02:19:28;;;;;;;1.13;0.30;;;;;;;8.91;96.19;99146.38;10385496;28;20069;-62
2024/04/02 02:24:28;;;;;;;1.30;0.38;;;;;;;8.84;95.36;99123.03;10397767;28;20151;-64
2024/04/02 02:29:29;;;;;;;1.63;0.30;;;;;;;9.06;94.95;99150.25;10399911;28;20051;-63
2024/04/02 02:34:29;;;;;;;2.40;0.20;;;;;;;8.78;95.04;99133.34;10422747;28;20079;-62
2024/04/02 02:39:30;;;;;;;1.20;0.20;;;;;;;9.00;95.04;99166.75;10410666;28;20536;-62
2024/04/02 02:44:30;;;;;;;1.67;0.30;;;;;;;8.98;94.64;99158.09;10404165;28;20057;-63
2024/04/02 02:49:31;;;;;;;1.30;0.40;;;;;;;9.08;93.35;99179.31;10405017;28;21091;-61
2024/04/02 02:54:31;;;;;;;1.38;0.43;;;;;;;9.12;93.22;99184.19;10376500;28;20049;-64
2024/04/02 02:59:32;;;;;;;0.75;0.20;;;;;;;9.26;93.21;99198.88;10413763;28;20561;-64
2024/04/02 03:04:32;;;;;;;1.15;0.40;;;;;;;9.28;93.07;99207.53;10375806;28;20557;-64
2024/04/02 03:09:36;;;;;;;1.83;0.30;;;;;;;9.32;93.45;99205.44;10398984;28;20979;-63
2024/04/02 03:14:36;;;;;;;0.82;0.20;;;;;;;9.36;93.44;99209.50;10404367;28;20123;-63
2024/04/02 03:19:37;;;;;;;2.95;0.47;;;;;;;9.41;94.02;99217.03;10406106;28;20045;-62
2024/04/02 03:24:37;;;;;;;0.93;0.40;;;;;;;9.48;94.30;99218.97;10402530;28;20467;-68
2024/04/02 03:29:38;;;;;;;0.85;0.20;;;;;;;9.14;94.15;99163.69;10401828;28;20083;-64
2024/04/02 03:34:38;;;;;;;1.23;0.28;;;;;;;9.62;94.21;99225.66;10403548;28;20112;-63
2024/04/02 03:39:39;;;;;;;1.33;0.30;;;;;;;9.42;94.16;99185.03;10392538;28;20048;-64
2024/04/02 03:44:39;;;;;;;2.40;0.40;;;;;;;9.65;94.20;99216.56;10396438;28;20075;-64
2024/04/02 03:49:40;;;;;;;1.73;0.30;;;;;;;9.71;94.27;99221.31;10405150;28;20049;-61
2024/04/02 03:54:40;;;;;;;3.42;0.65;;;;;;;9.49;93.89;99194.09;10408860;28;20056;-63
2024/04/02 03:59:41;;;;;;;1.25;0.50;;;;;;;9.70;93.48;99220.50;10393398;28;20057;-64
2024/04/02 04:04:41;;;;;;;1.45;0.40;;;;;;;9.66;93.71;99221.75;10362110;28;20602;-63
2024/04/02 04:09:42;;;;;;;1.48;0.65;;;;;;;9.67;93.46;99227.91;10361181;28;20040;-62
2024/04/02 04:14:48;;;;;;;1.13;0.32;;;;;;;9.72;93.45;99236.28;10418688;28;20059;-64
2024/04/02 04:19:48;;;;;;;1.33;0.57;;;;;;;9.78;93.26;99241.03;10401712;28;20140;-64
2024/04/02 04:25:00;;;;;;;2.75;0.57;;;;;;;9.72;92.63;99241.59;10399837;28;20682;-64
2024/04/02 04:30:01;;;;;;;1.38;0.40;;;;;;;9.67;93.21;99247.34;10403799;28;20136;-62
2024/04/02 04:35:02;;;;;;;1.70;0.50;;;;;;;9.68;93.08;99253.50;10397023;28;20686;-63
2024/04/02 04:40:03;;;;;;;1.52;0.50;;;;;;;9.64;92.45;99260.91;10393671;28;20143;-64
2024/04/02 04:45:04;;;;;;;1.00;0.40;;;;;;;9.68;92.58;99264.13;10392619;28;20056;-63
2024/04/02 04:50:05;;;;;;;0.85;0.40;;;;;;;9.69;94.16;99273.78;10403824;28;20446;-64
2024/04/02 04:55:06;;;;;;;1.75;0.43;;;;;;;9.46;94.34;99244.84;10403708;28;20049;-63
2024/04/02 05:00:07;;;;;;;0.80;0.30;;;;;;;9.75;94.44;99267.88;10394253;28;20180;-63
2024/04/02 05:05:08;;;;;;;3.22;0.85;;;;;;;9.53;94.42;99274.34;10403701;28;20179;-63
2024/04/02 05:10:09;;;;;;;3.65;0.70;;;;;;;9.53;94.07;99269.03;10402363;28;20087;-64
2024/04/02 05:15:09;;;;;;;1.17;0.35;;;;;;;9.49;93.54;99257.84;10398710;28;20486;-64
2024/04/02 05:20:10;;;;;;;1.60;0.60;;;;;;;9.59;93.38;99295.03;10401430;28;20510;-64
2024/04/02 05:25:10;;;;;;;1.08;0.50;;;;;;;9.53;93.63;99301.75;10388084;28;20045;-63
2024/04/02 05:30:12;;;;;;;0.82;0.38;;;;;;;9.60;93.90;99303.84;10387501;28;20647;-62
2024/04/02 05:35:12;;;;;;;3.40;0.80;;;;;;;9.53;93.82;99307.06;10393940;28;20144;-62
2024/04/02 05:40:13;;;;;;;3.83;0.75;;;;;;;9.67;93.74;99303.16;10384966;28;20142;-65
2024/04/02 05:45:15;;;;;;;1.92;0.88;;;;;;;9.59;93.05;99300.34;10401376;28;20056;-62
2024/04/02 05:50:17;;;;;;;5.28;1.75;;;;;;;9.64;92.77;99315.88;10398727;28;20124;-62
2024/04/02 05:55:18;;;;;;;7.25;1.20;;;;;;;9.69;92.47;99321.63;10398949;28;21638;-62
2024/04/02 06:00:18;;;;;;;4.07;1.35;;;;;;;9.69;92.30;99326.94;10402160;28;20052;-65
2024/04/02 06:05:19;;;;;;;2.83;0.95;;;;;;;9.82;91.50;99329.31;10404531;28;20055;-62
2024/04/02 06:10:19;;;;;;;2.08;0.93;;;;;;;9.86;91.25;99331.53;10407580;28;20544;-61
2024/04/02 06:15:21;;;;;;;1.98;0.57;;;;;;;9.90;90.99;99330.25;10410966;28;20055;-64
2024/04/02 06:20:21;;;;;;;1.17;0.70;;;;;;;10.00;90.59;99340.88;10409171;28;20048;-64
2024/04/02 06:25:22;;;;;;;2.55;1.13;;;;;;;10.00;90.02;99351.53;10411439;28;20172;-63
2024/04/02 06:30:22;;;;;;;3.30;1.38;;;;;;;9.94;90.23;99356.56;10405873;28;20094;-62
2024/04/02 06:35:23;;;;;;;67.22;9.98;;;;;;;9.86;90.98;99359.91;10407002;28;20493;-63
2024/04/02 06:40:23;;;;;;;2.92;0.70;;;;;;;9.86;90.96;99371.41;10406672;28;20053;-62
2024/04/02 06:45:26;;;;;;;2.88;1.20;;;;;;;9.93;91.24;99377.00;10403100;28;20049;-62
2024/04/02 06:50:26;;;;;;;2.75;0.75;;;;;;;9.97;91.10;99369.56;10402241;28;20053;-62
2024/04/02 06:55:29;;;;;;;4.32;0.77;;;;;;;10.04;90.99;99378.66;10399096;28;20041;-63
2024/04/02 07:00:29;;;;;;;1.50;0.63;;;;;;;10.10;91.05;99372.78;10408191;28;21130;-63
2024/04/02 07:05:30;;;;;;;2.78;0.98;;;;;;;10.10;89.61;99386.06;10393669;28;20056;-62
2024/04/02 07:10:30;;;;;;;2.38;0.82;;;;;;;10.08;90.21;99382.72;10382628;28;20084;-63
2024/04/02 07:15:31;;;;;;;4.13;1.00;;;;;;;10.19;89.69;99393.22;10400796;28;20067;-66
2024/04/02 07:20:31;;;;;;;1.38;0.30;;;;;;;9.97;90.04;99370.41;10403542;28;20056;-62
2024/04/02 07:25:32;;;;;;;2.25;0.43;;;;;;;10.25;90.14;99400.63;10403259;28;20482;-65
2024/04/02 07:30:32;;;;;;;2.58;0.47;;;;;;;10.27;89.04;99409.28;10354363;28;20637;-66
2024/04/02 07:35:35;;;;;;;2.72;0.52;;;;;;;10.09;89.31;99381.75;10408124;28;20086;-63
2024/04/02 07:40:36;;;;;;;4.00;0.50;;;;;;;10.27;89.41;99421.75;10405357;28;20124;-63
2024/04/02 07:45:37;;;;;;;1.23;0.40;;;;;;;10.31;89.70;99427.63;10376098;28;20055;-64
2024/04/02 07:50:37;;;;;;;1.60;0.30;;;;;;;10.43;89.51;99430.03;10382045;28;20179;-63
2024/04/02 07:55:38;;;;;;;3.83;0.82;;;;;;;10.50;88.89;99432.94;10401122;28;20056;-62
2024/04/02 08:00:40;;;;;;;2.95;0.70;;;;;;;10.59;89.27;99437.41;10400601;28;20052;-63
2024/04/02 08:05:41;;;;;;;3.45;0.90;;;;;;;10.55;88.97;99443.16;10354483;28;20177;-64
2024/04/02 08:10:41;;;;;;;3.60;0.73;;;;;;;10.58;88.29;99449.06;10377588;28;20518;-64
2024/04/02 08:15:42;;;;;;;5.53;0.77;;;;;;;10.72;87.42;99449.56;10400195;28;20059;-62
2024/04/02 08:20:42;;;;;;;4.75;0.93;;;;;;;11.01;85.51;99449.47;10392372;28;20135;-62
2024/04/02 08:25:42;;;;;;;4.82;1.10;;;;;;;11.35;83.22;99448.06;10402850;28;20643;-62
2024/04/02 08:30:43;;;;;;;4.07;0.73;;;;;;;11.40;82.08;99467.13;10402809;28;20095;-63
2024/04/02 08:35:51;;;;;;;2.90;0.90;;;;;;;11.51;81.89;99453.56;10384306;28;20059;-63
2024/04/02 08:40:52;;;;;;;3.35;0.93;;;;;;;11.42;79.71;99454.47;10401982;28;20131;-65
2024/04/02 08:45:53;;;;;;;1.95;0.60;;;;;;;11.42;80.08;99454.47;10403094;28;20048;-62
2024/04/02 08:50:58;;;;;;;3.65;0.80;;;;;;;11.52;76.84;99459.75;10330202;28;20132;-66
2024/04/02 08:55:59;;;;;;;;;;;;;;;11.80;75.64;99465.88;10405981;28;20141;-63
2024/04/02 09:01:03;;;;;;;4.00;0.93;;;;;;;11.80;73.32;99476.53;10416708;28;20069;-65
2024/04/02 09:06:04;;;;;;;4.37;1.57;;;;;;;11.75;72.12;99492.16;10398442;28;20136;-62
2024/04/02 09:11:05;;;;;;;2.47;0.90;;;;;;;11.71;72.25;99485.44;10396446;28;20049;-63
2024/04/02 09:16:07;;;;;;;3.20;0.80;;;;;;;11.67;72.23;99480.41;10386204;28;20235;-65
2024/04/02 09:21:07;;;;;;;2.33;0.60;;;;;;;11.76;72.81;99491.19;10394757;28;20041;-63
2024/04/02 09:26:09;;;;;;;2.75;0.98;;;;;;;12.15;70.86;99497.13;10387885;28;20068;-62
2024/04/02 09:31:09;;;;;;;4.13;0.90;;;;;;;12.39;69.52;99501.00;10373977;28;20044;-62
2024/04/02 09:36:17;;;;;;;3.65;0.70;;;;;;;12.42;66.78;99498.03;10401975;28;20509;-62
2024/04/02 09:41:19;;;;;;;4.50;0.60;;;;;;;12.40;66.24;99505.34;10405372;28;20491;-63
2024/04/02 09:46:21;;;;;;;4.40;0.80;;;;;;;12.28;65.57;99515.41;10403049;28;20128;-62
2024/04/02 09:51:25;;;;;;;3.20;0.63;;;;;;;12.19;65.52;99479.00;10385629;28;20159;-64
2024/04/02 09:56:26;;;;;;;3.00;1.05;;;;;;;12.64;63.99;99504.72;10407396;28;20144;-63
2024/04/02 10:01:29;;;;;;;4.57;0.70;;;;;;;12.70;61.72;99513.91;10407858;28;20114;-64
2024/04/02 10:06:32;;;;;;;3.00;0.70;;;;;;;12.63;61.40;99513.72;10404638;28;20139;-66
2024/04/02 10:11:41;;;;;;;4.82;0.75;;;;;;;12.49;60.64;99516.91;10403980;28;20186;-71
2024/04/02 10:16:47;;;;;;;4.20;0.63;;;;;;;12.63;61.58;99519.06;10408136;28;20155;-65
2024/04/02 10:21:48;;;;;;;2.90;0.47;;;;;;;13.00;62.34;99520.66;10402048;28;20114;-65
2024/04/02 10:26:54;;;;;;;2.42;0.50;;;;;;;13.06;61.12;99503.13;10402841;28;20065;-64
2024/04/02 10:31:56;;;;;;;3.10;0.70;;;;;;;13.52;61.17;99508.25;10382664;28;20171;-61
2024/04/02 10:36:58;;;;;;;2.70;0.77;;;;;;;13.86;59.43;99494.84;10403206;28;20148;-63
2024/04/02 10:42:02;;;;;;;2.75;0.55;;;;;;;14.09;56.56;99492.38;10400879;28;20163;-66
2024/04/02 10:47:03;;;;;;;3.92;0.70;;;;;;;14.73;55.95;99480.22;10405848;28;20200;-63
2024/04/02 10:52:04;;;;;;;3.95;0.70;;;;;;;16.17;52.75;99451.44;10403858;28;20067;-61
2024/04/02 10:57:05;;;;;;;5.07;0.82;;;;;;;16.60;50.16;99479.47;10402188;28;20090;-63
2024/04/02 11:02:19;;;;;;;2.25;0.40;;;;;;;17.15;49.90;99495.41;10407057;28;21240;-63
2024/04/02 11:07:20;;;;;;;2.38;0.70;;;;;;;16.09;50.99;99479.19;10401545;28;20151;-61
2024/04/02 11:12:21;;;;;;;1.92;1.02;;;;;;;15.32;52.29;99493.31;10403593;28;20676;-63
2024/04/02 11:17:22;;;;;;;1.95;0.50;;;;;;;14.13;54.96;99445.53;10400254;28;20219;-63
2024/04/02 11:27:43;;;;;;;1.70;0.40;;;;;;;14.13;58.70;99500.91;10357130;28;20753;-62
2024/04/02 11:32:43;;;;;;;3.70;0.60;;;;;;;14.40;59.53;99493.59;10408084;28;20143;-63
2024/04/02 11:37:44;;;;;;;2.30;0.43;;;;;;;14.62;56.09;99481.38;10411741;28;20468;-63
2024/04/02 11:42:44;;;;;;;1.85;0.32;;;;;;;14.15;58.26;99501.56;10412824;28;20056;-64
2024/04/02 11:47:47;;;;;;;2.80;0.85;;;;;;;13.69;58.71;99526.06;10384526;28;20136;-63
2024/04/02 11:52:49;;;;;;;1.25;0.38;;;;;;;13.40;61.97;99521.06;10403217;28;20614;-63
2024/04/02 12:03:09;;;;;;;5.85;4.25;;;;;;;13.55;68.13;99523.97;10397771;28;20160;-63
2024/04/02 12:08:09;;;;;;;27.20;24.83;;;;;;;13.67;73.51;99533.38;10404350;28;20055;-63
2024/04/02 12:13:10;;;;;;;5.32;3.55;;;;;;;13.70;74.16;99543.75;10385443;28;20056;-66
2024/04/02 12:18:10;;;;;;;3.63;1.60;;;;;;;13.77;75.57;99552.81;10406221;28;20049;-62
2024/04/02 12:23:11;;;;;;;3.13;0.77;;;;;;;13.50;76.60;99518.28;10403198;28;20148;-64
2024/04/02 12:28:11;;;;;;;5.00;0.95;;;;;;;13.73;75.60;99558.66;10393527;28;20053;-61
2024/04/02 12:33:12;;;;;;;3.33;1.25;;;;;;;14.06;73.75;99532.00;10358039;28;20041;-63
2024/04/02 12:38:12;;;;;;;3.92;0.88;;;;;;;14.74;67.66;99530.94;10354138;28;20271;-62
2024/04/02 12:43:14;;;;;;;3.83;0.50;;;;;;;14.24;66.93;99532.69;10395503;28;20151;-63
2024/04/02 12:48:15;;;;;;;2.85;0.63;;;;;;;15.72;63.23;99529.03;10404864;28;20369;-62
2024/04/02 12:53:15;;;;;;;1.13;0.52;;;;;;;20.79;44.84;99532.84;10399540;28;20065;-62
2024/04/02 12:58:16;;;;;;;2.17;0.35;;;;;;;18.73;48.05;99512.78;10392577;28;20160;-64
2024/04/02 13:03:18;;;;;;;3.25;1.70;;;;;;;18.48;48.09;99514.19;10381973;28;20155;-61
2024/04/02 13:08:18;;;;;;;3.97;0.95;;;;;;;16.20;53.39;99532.47;10400757;28;20167;-62
2024/04/02 13:13:19;;;;;;;2.97;0.75;;;;;;;15.18;61.12;99530.53;10399180;28;20059;-62
2024/04/02 13:18:19;;;;;;;3.95;0.85;;;;;;;15.47;60.34;99525.59;10399622;28;20573;-62
2024/04/02 13:23:20;;;;;;;3.13;1.13;;;;;;;15.84;62.99;99516.91;10407498;28;20801;-62
2024/04/02 13:28:21;;;;;;;4.68;0.88;;;;;;;16.21;56.70;99517.19;10397574;28;20057;-62
2024/04/02 13:33:21;;;;;;;13.55;5.97;;;;;;;16.70;54.05;99500.69;10394029;28;20057;-61
2024/04/02 13:38:21;;;;;;;3.65;1.10;;;;;;;16.66;52.11;99487.81;10391218;28;20079;-62
2024/04/02 13:43:22;;;;;;;5.15;1.58;;;;;;;16.83;50.28;99510.84;10398499;28;20569;-63
2024/04/02 13:48:22;;;;;;;5.18;2.55;;;;;;;16.43;48.60;99499.41;10401367;28;20060;-62
2024/04/02 13:53:23;;;;;;;2.90;1.00;;;;;;;16.12;45.99;99502.16;10396013;28;20064;-62
2024/04/02 13:58:24;;;;;;;4.63;3.28;;;;;;;15.81;49.87;99497.66;10394817;28;20045;-62
2024/04/02 14:03:24;;;;;;;2.28;1.42;;;;;;;15.49;49.96;99491.38;10395193;28;20052;-61
2024/04/02 14:08:28;;;;;;;2.13;0.65;;;;;;;15.43;49.87;99486.72;10399332;28;20578;-62
2024/04/02 14:13:30;;;;;;;5.63;0.80;;;;;;;15.27;51.55;99482.28;10401463;28;20073;-65
2024/04/02 14:18:30;;;;;;;4.53;1.10;;;;;;;15.19;52.23;99492.00;10391725;28;20127;-62
2024/04/02 14:23:35;;;;;;;4.18;1.02;;;;;;;14.96;51.40;99483.00;10406946;28;20682;-63
2024/04/02 14:28:39;;;;;;;8.45;1.27;;;;;;;14.80;51.62;99479.38;10407313;28;20135;-62
2024/04/02 14:33:40;;;;;;;4.22;0.90;;;;;;;14.80;52.72;99495.44;10410936;28;20836;-62
2024/04/02 14:38:41;;;;;;;4.70;0.82;;;;;;;14.92;50.92;99497.75;10389735;28;20238;-62
2024/04/02 14:43:41;;;;;;;5.47;1.40;;;;;;;14.82;51.64;99505.97;10403201;28;20137;-64
2024/04/02 14:48:42;;;;;;;4.50;0.85;;;;;;;14.72;52.20;99499.97;10406107;28;20049;-62
2024/04/02 14:53:42;;;;;;;1.98;0.90;;;;;;;14.48;52.13;99505.09;10407388;28;20509;-62
2024/04/02 14:58:43;;;;;;;7.47;1.40;;;;;;;14.67;50.82;99505.84;10393019;28;20052;-65
2024/04/02 15:03:43;;;;;;;4.75;0.90;;;;;;;14.72;49.81;99490.06;10357463;28;20049;-64
2024/04/02 15:08:44;;;;;;;4.28;0.90;;;;;;;14.97;50.13;99500.78;10370927;28;20389;-62
2024/04/02 15:13:46;;;;;;;3.13;1.00;;;;;;;14.99;50.34;99488.03;10397539;28;20060;-61
2024/04/02 15:18:46;;;;;;;3.35;0.95;;;;;;;14.89;50.41;99479.34;10409513;28;20132;-63
2024/04/02 15:23:47;;;;;;;3.20;0.70;;;;;;;14.73;50.83;99485.56;10392860;28;20041;-62
2024/04/02 15:28:47;;;;;;;4.40;1.02;;;;;;;14.88;51.62;99489.22;10391221;28;20058;-65
2024/04/02 15:33:48;;;;;;;1.30;0.52;;;;;;;14.79;49.90;99469.66;10403865;28;20096;-63
2024/04/02 15:38:48;;;;;;;2.05;0.60;;;;;;;14.77;48.27;99469.00;10405017;28;20139;-63
2024/04/02 15:43:49;;;;;;;3.47;1.02;;;;;;;14.62;48.83;99458.13;10409964;28;20049;-61
2024/04/02 15:48:50;;;;;;;4.50;0.93;;;;;;;14.62;49.50;99457.28;10403351;28;20053;-62
2024/04/02 15:53:50;;;;;;;2.05;0.47;;;;;;;14.58;50.51;99453.25;10402446;28;20449;-67
2024/04/02 15:58:51;;;;;;;2.30;0.70;;;;;;;14.62;48.77;99459.94;10406447;28;20094;-65
2024/04/02 16:03:51;;;;;;;4.40;0.70;;;;;;;14.51;47.75;99466.47;10391625;28;20047;-62
2024/04/02 16:08:52;;;;;;;3.28;0.68;;;;;;;14.44;47.07;99471.66;10374333;28;20514;-60
2024/04/02 16:13:52;;;;;;;4.10;1.08;;;;;;;14.27;48.07;99459.28;10374830;28;20742;-61
2024/04/02 16:18:55;;;;;;;2.53;0.65;;;;;;;14.05;48.55;99442.88;10393418;28;20147;-63
2024/04/02 16:23:56;;;;;;;3.67;0.68;;;;;;;14.29;49.28;99476.00;10352680;28;20045;-61
2024/04/02 16:28:57;;;;;;;3.83;0.85;;;;;;;14.23;48.48;99479.34;10388210;28;20132;-62
2024/04/02 16:33:57;;;;;;;6.93;1.10;;;;;;;14.23;50.64;99482.00;10400543;28;20191;-62
2024/04/02 16:38:58;;;;;;;4.40;1.00;;;;;;;14.20;52.76;99485.03;10400756;28;20073;-61
2024/04/02 16:43:59;;;;;;;3.33;0.77;;;;;;;13.89;54.24;99464.25;10398557;28;20076;-62
2024/04/02 16:49:01;;;;;;;2.72;0.60;;;;;;;13.98;55.65;99482.00;10409233;28;20144;-61
2024/04/02 16:54:02;;;;;;;2.42;1.10;;;;;;;13.96;56.66;99483.97;10397391;28;20106;-62
2024/04/02 16:59:02;;;;;;;2.50;1.00;;;;;;;13.90;56.85;99472.13;10406547;28;20057;-62
2024/04/02 17:04:03;;;;;;;2.65;1.33;;;;;;;13.97;56.56;99474.97;10396170;28;20110;-67
2024/04/02 17:09:03;;;;;;;2.28;1.15;;;;;;;13.87;55.66;99475.13;10400614;28;20533;-66
2024/04/02 17:14:03;;;;;;;5.85;0.77;;;;;;;13.82;54.15;99482.78;10403065;28;20729;-66
2024/04/02 17:19:04;;;;;;;3.88;1.10;;;;;;;13.82;52.91;99480.09;10399516;28;20049;-65
2024/04/02 17:24:04;;;;;;;7.43;1.40;;;;;;;13.78;52.11;99487.63;10403875;28;20553;-65
2024/04/02 17:29:05;;;;;;;3.83;0.93;;;;;;;13.78;50.83;99482.28;10397000;28;20066;-66
2024/04/02 17:34:07;;;;;;;4.05;1.20;;;;;;;13.76;50.30;99481.59;10377858;28;20132;-65
2024/04/02 17:39:07;;;;;;;3.92;0.90;;;;;;;13.57;51.92;99468.50;10404369;28;20152;-64
2024/04/02 17:44:08;;;;;;;6.80;1.10;;;;;;;13.63;53.48;99497.28;10366943;28;20061;-65
2024/04/02 17:49:08;;;;;;;2.63;0.80;;;;;;;13.53;54.90;99505.41;10374077;28;20503;-65
2024/04/02 17:54:09;;;;;;;4.18;1.25;;;;;;;13.47;55.46;99498.06;10398893;28;20129;-66
2024/04/02 17:59:09;;;;;;;2.60;1.13;;;;;;;13.39;56.63;99498.84;10410096;28;20059;-65
2024/04/02 18:04:09;;;;;;;3.90;1.30;;;;;;;13.32;57.41;99507.66;10405751;28;20061;-65
2024/04/02 18:09:10;;;;;;;5.03;1.52;;;;;;;13.24;57.51;99490.56;10404272;28;20064;-65
2024/04/02 18:14:11;;;;;;;4.47;1.33;;;;;;;13.37;57.72;99508.84;10389403;28;20056;-66
2024/04/02 18:19:11;;;;;;;4.63;1.30;;;;;;;13.32;57.80;99519.16;10376463;28;20575;-66
2024/04/02 18:24:12;;;;;;;3.30;1.10;;;;;;;13.02;57.97;99464.41;10365817;28;20064;-65
2024/04/02 18:29:18;;;;;;;5.80;3.22;;;;;;;13.25;57.70;99491.41;10384228;28;20053;-65
2024/04/02 18:34:18;;;;;;;3.63;1.52;;;;;;;13.40;58.00;99519.22;10408621;28;20167;-64
2024/04/02 18:39:20;;;;;;;7.18;1.90;;;;;;;13.03;57.49;99476.75;10396154;28;20498;-66
2024/04/02 18:44:21;;;;;;;6.38;1.30;;;;;;;13.26;57.43;99533.16;10419304;28;20135;-65
2024/04/02 18:49:21;;;;;;;6.55;2.30;;;;;;;13.24;57.45;99551.19;10394952;28;20056;-64
2024/04/02 18:54:22;;;;;;;3.42;1.08;;;;;;;13.21;56.59;99551.50;10360068;28;20071;-65
2024/04/02 18:59:23;;;;;;;5.32;1.60;;;;;;;13.10;57.43;99544.59;10380474;28;20045;-65
2024/04/02 19:04:23;;;;;;;3.00;1.40;;;;;;;13.04;57.98;99547.88;10380404;28;20045;-64
2024/04/02 19:09:25;;;;;;;2.40;1.20;;;;;;;12.98;58.03;99546.66;10408880;28;20574;-65
2024/04/02 19:14:25;;;;;;;6.53;1.60;;;;;;;12.98;57.61;99554.69;10403615;28;20195;-68
2024/04/02 19:19:26;;;;;;;5.78;1.70;;;;;;;13.00;57.76;99558.06;10400001;28;20519;-66
2024/04/02 19:24:30;;;;;;;5.20;1.80;;;;;;;12.93;57.83;99551.66;10351498;28;20147;-65
2024/04/02 19:29:31;;;;;;;4.35;1.25;;;;;;;12.84;56.86;99542.75;10369346;28;20132;-64
2024/04/02 19:34:32;;;;;;;6.63;1.40;;;;;;;12.94;57.17;99561.34;10403052;28;20502;-65
2024/04/02 19:39:32;;;;;;;3.47;1.33;;;;;;;12.73;56.18;99525.13;10393018;28;20503;-65
2024/04/02 19:44:33;;;;;;;8.15;1.70;;;;;;;12.92;55.92;99549.97;10399944;28;20057;-66
2024/04/02 19:49:33;;;;;;;5.82;1.40;;;;;;;12.84;55.42;99542.75;10410493;28;20200;-65
2024/04/02 19:54:35;;;;;;;3.92;2.15;;;;;;;12.87;55.92;99546.94;10363907;28;20045;-65
2024/04/02 19:59:35;;;;;;;1.73;0.88;;;;;;;12.85;55.71;99559.59;10359811;28;20113;-66
2024/04/02 20:04:36;;;;;;;3.95;0.88;;;;;;;12.84;56.10;99563.28;10397896;28;20045;-66
2024/04/02 20:09:36;;;;;;;3.03;1.33;;;;;;;12.81;55.91;99564.41;10396722;28;20143;-66
2024/04/02 20:14:37;;;;;;;4.65;0.98;;;;;;;12.78;56.31;99566.56;10371086;28;20937;-65
2024/04/02 20:19:37;;;;;;;1.92;0.63;;;;;;;12.76;56.09;99556.03;10399198;28;20063;-65
2024/04/02 20:24:38;;;;;;;4.78;1.00;;;;;;;12.79;56.47;99549.53;10407071;28;20053;-66
2024/04/02 20:29:38;;;;;;;1.60;0.65;;;;;;;12.77;56.91;99557.69;10404349;28;20052;-66
2024/04/02 20:34:40;;;;;;;3.03;0.68;;;;;;;12.79;57.30;99554.88;10402507;28;20053;-65
2024/04/02 20:39:41;;;;;;;2.17;0.63;;;;;;;12.75;57.93;99554.34;10408354;28;20144;-65
2024/04/02 20:44:45;;;;;;;3.33;0.52;;;;;;;12.66;58.67;99558.78;10406012;28;20736;-66
2024/04/02 20:49:46;;;;;;;3.08;0.98;;;;;;;12.61;59.23;99578.91;10405697;28;20140;-65
2024/04/02 20:54:49;;;;;;;3.63;0.70;;;;;;;12.61;59.68;99574.44;10409606;28;20156;-66
2024/04/02 20:59:50;;;;;;;2.60;0.57;;;;;;;12.57;59.64;99573.06;10407746;28;20123;-66
2024/04/02 21:04:52;;;;;;;3.80;0.68;;;;;;;12.66;59.92;99577.47;10403322;28;20044;-65
2024/04/02 21:09:52;;;;;;;2.25;0.90;;;;;;;12.70;59.99;99594.88;10403376;28;20159;-66
2024/04/02 21:14:53;;;;;;;1.73;0.43;;;;;;;12.60;60.59;99586.09;10407042;28;20045;-65
2024/04/02 21:19:53;;;;;;;5.68;0.70;;;;;;;12.59;60.99;99592.44;10381209;28;20052;-65
2024/04/02 21:24:54;;;;;;;4.80;0.80;;;;;;;12.60;60.98;99599.47;10405206;28;20053;-66
2024/04/02 21:29:55;;;;;;;2.50;0.90;;;;;;;12.43;61.48;99579.78;10399231;28;20137;-66
2024/04/02 21:34:55;;;;;;;1.80;0.47;;;;;;;12.52;61.86;99586.00;10404634;28;20212;-66
2024/04/02 21:39:56;;;;;;;6.70;0.85;;;;;;;12.46;61.44;99586.63;10400824;28;20056;-66
2024/04/02 21:44:56;;;;;;;4.47;1.17;;;;;;;12.35;61.69;99590.34;10403814;28;20056;-65
2024/04/02 21:49:57;;;;;;;2.85;1.23;;;;;;;12.27;62.31;99585.78;10399592;28;20514;-66
2024/04/02 21:54:57;;;;;;;2.20;0.68;;;;;;;12.28;62.68;99590.13;10405355;28;20056;-65
2024/04/02 21:59:57;;;;;;;3.15;1.15;;;;;;;12.23;63.16;99589.72;10401676;28;20071;-65
2024/04/02 22:04:59;;;;;;;2.33;0.90;;;;;;;12.27;63.28;99584.94;10403154;28;20057;-65
2024/04/02 22:10:00;;;;;;;4.72;1.13;;;;;;;12.19;64.29;99591.06;10408207;28;20164;-65
2024/04/02 22:15:00;;;;;;;4.15;0.90;;;;;;;12.08;65.01;99593.91;10402565;28;20049;-66
2024/04/02 22:20:01;;;;;;;2.33;0.70;;;;;;;12.11;65.28;99591.78;10402024;28;20061;-66
2024/04/02 22:25:03;;;;;;;2.58;0.68;;;;;;;12.06;65.81;99586.06;10404816;28;20056;-66
2024/04/02 22:30:03;;;;;;;2.55;0.57;;;;;;;12.14;65.96;99585.31;10401218;28;20136;-66
2024/04/02 22:35:04;;;;;;;2.95;0.98;;;;;;;12.18;65.96;99584.03;10406073;28;20052;-65
2024/04/02 22:40:05;;;;;;;3.88;0.70;;;;;;;12.19;65.88;99581.19;10403800;28;20048;-65
2024/04/02 22:45:06;;;;;;;1.55;0.50;;;;;;;12.23;65.75;99581.72;10410336;28;20124;-65
2024/04/02 22:50:08;;;;;;;3.20;0.70;;;;;;;12.13;66.21;99579.13;10408875;28;20056;-65
2024/04/02 22:55:08;;;;;;;3.38;0.93;;;;;;;12.12;66.27;99577.44;10398739;28;20128;-65
2024/04/02 23:00:09;;;;;;;3.08;0.40;;;;;;;12.05;66.71;99576.38;10398250;28;20048;-66
2024/04/02 23:05:10;;;;;;;2.50;0.57;;;;;;;11.97;67.25;99571.78;10405531;28;20055;-65
2024/04/02 23:10:10;;;;;;;3.45;0.60;;;;;;;11.93;67.79;99567.72;10401138;28;20041;-65
2024/04/02 23:15:10;;;;;;;1.67;0.57;;;;;;;11.92;68.04;99574.03;10394773;28;20045;-65
2024/04/02 23:20:11;;;;;;;2.83;0.60;;;;;;;11.93;68.57;99567.72;10410939;28;20062;-66
2024/04/02 23:25:12;;;;;;;1.48;0.77;;;;;;;11.70;69.41;99542.44;10403711;28;20623;-66
2024/04/02 23:30:12;;;;;;;3.55;0.60;;;;;;;11.70;69.94;99539.78;10400636;28;20583;-65
2024/04/02 23:35:12;;;;;;;3.92;0.60;;;;;;;11.93;69.81;99565.06;10389634;28;20049;-65